Seattle, Washington
Traffic Map
Current Weather Conditions
Seattle, Washington
Broken Clouds
Broken Clouds
54°
Feels Like: 54°
Wind Chill: 54° Ceiling: 12000
Heat Index: 54° Visibility: 10mi
Dew Point: 40° Wind: 6mph
Humidity: 59% Direction: ° ()
Pressure: 30.34in Gusts: 0mph
Raw Report DataKBFI 290553Z VRB05KT 10SM FEW090 BKN120 12/04 A3034 RMK AO2 SLP273 T01220044 10156 20122 50003
Traffic Incident Summary
Active as of:
Severity:
Category:
InformationThere was an issue retrieving the traffic information for this location. Please try a different location or try again shortly.
Advertisements
Track Severe Weather on mobile